Terminal Aerodrome Forecast
Issued by NWS

Home | Current Version | Previous Version | Text Only | Print | Product List | Glossary On
Versions: 1 2 3 4 5 6 7 8 9 10 11 12 13 14 15 16 17 18 19 20 21 22 23 24
000
FTUS44 KHGX 290810 AAA
TAFUTS
TAF AMD
KUTS 290810Z 2908/3006 20007KT P6SM OVC007 WS015/18035KT
     FM291500 22005KT P6SM BKN015
     FM291800 22007KT P6SM SCT020 BKN250
     FM292100 26005KT P6SM SCT250
     FM300000 32003KT P6SM OVC100=

USA.gov is the U.S. government's official web portal to all federal, state and local government web resources and services.